createdAt,value
2023-03-24T00:00:21.719Z,-24117.88
2023-03-24T00:02:52.654Z,-24117.29
2023-03-24T00:08:17.425Z,-24116.51
2023-03-24T00:10:47.705Z,-24114.98
2023-03-24T00:13:16.502Z,-24113.80
2023-03-24T00:15:48.955Z,-24112.74
2023-03-24T00:18:18.535Z,-24111.96
2023-03-24T00:20:47.533Z,-24111.28
2023-03-24T00:23:15.902Z,-24110.66
2023-03-24T00:25:45.292Z,-24110.19
2023-03-24T00:28:16.410Z,-24109.66
2023-03-24T00:30:53.689Z,-24109.38
2023-03-24T00:33:22.356Z,-24109.10
2023-03-24T00:35:50.642Z,-24108.82
2023-03-24T00:38:19.732Z,-24108.48
2023-03-24T00:40:50.444Z,-24108.51
2023-03-24T00:43:19.307Z,-24108.17
2023-03-24T00:45:47.591Z,-24107.57
2023-03-24T00:48:24.496Z,-24107.14
2023-03-24T00:50:52.796Z,-24106.67
2023-03-24T00:53:23.457Z,-24106.08
2023-03-24T00:55:54.030Z,-24105.73
2023-03-24T00:58:23.086Z,-24105.52
2023-03-24T01:00:55.911Z,-24105.64
2023-03-24T01:03:30.180Z,-24105.64
2023-03-24T01:06:03.187Z,-24105.12
2023-03-24T01:08:32.905Z,-24104.62
2023-03-24T01:11:01.694Z,-24104.06
2023-03-24T01:13:32.222Z,-24103.84
2023-03-24T01:16:00.389Z,-24103.50
2023-03-24T01:18:28.515Z,-24102.87
2023-03-24T01:20:58.480Z,-24102.13
2023-03-24T01:23:26.895Z,-24101.63
2023-03-24T01:25:55.371Z,-24101.50
2023-03-24T01:28:25.375Z,-24101.35
2023-03-24T01:30:54.184Z,-24101.22
2023-03-24T01:33:22.446Z,-24101.19
2023-03-24T01:35:51.246Z,-24101.03
2023-03-24T01:38:19.819Z,-24101.38
2023-03-24T01:40:48.470Z,-24101.57
2023-03-24T01:43:22.435Z,-24101.69
2023-03-24T01:45:51.203Z,-24101.72
2023-03-24T01:48:25.771Z,-24102.06
2023-03-24T01:50:58.011Z,-24102.19
2023-03-24T01:53:26.262Z,-24102.68
2023-03-24T01:55:56.336Z,-24102.88
2023-03-24T01:58:30.945Z,-24103.31
2023-03-24T02:01:14.193Z,-24103.62
2023-03-24T02:04:04.057Z,-24103.65
2023-03-24T02:06:34.154Z,-24103.71
2023-03-24T02:09:04.577Z,-24103.37
2023-03-24T02:11:35.208Z,-24103.06
2023-03-24T02:14:13.474Z,-24102.43
2023-03-24T02:16:42.174Z,-24102.16
2023-03-24T02:19:38.156Z,-24102.22
2023-03-24T02:22:30.248Z,-24102.94
2023-03-24T02:25:21.824Z,-24103.87
2023-03-24T02:28:25.652Z,-24104.93
2023-03-24T02:31:19.294Z,-24106.61
2023-03-24T02:34:19.527Z,-24108.29
2023-03-24T02:36:57.565Z,-24109.66
2023-03-24T02:39:46.908Z,-24110.66
2023-03-24T02:42:22.202Z,-24111.47
2023-03-24T02:45:16.751Z,-24111.59
2023-03-24T02:47:58.622Z,-24112.34
2023-03-24T02:50:33.302Z,-24112.93
2023-03-24T02:53:06.280Z,-24113.08
2023-03-24T02:56:10.229Z,-24113.24
2023-03-24T02:58:42.423Z,-24113.24
2023-03-24T03:01:19.097Z,-24113.11
2023-03-24T03:04:08.469Z,-24112.96
2023-03-24T03:06:40.369Z,-24112.87
2023-03-24T03:09:11.747Z,-24112.65
2023-03-24T03:11:45.303Z,-24112.62
2023-03-24T03:14:21.505Z,-24112.84
2023-03-24T03:17:00.226Z,-24112.43
2023-03-24T03:19:38.950Z,-24112.30
2023-03-24T03:22:11.265Z,-24112.30
2023-03-24T03:24:41.737Z,-24111.93
2023-03-24T03:27:14.996Z,-24111.81
2023-03-24T03:29:50.399Z,-24111.37
2023-03-24T03:32:24.840Z,-24111.28
2023-03-24T03:34:57.989Z,-24111.06
2023-03-24T03:37:34.189Z,-24110.31
2023-03-24T03:40:25.812Z,-24109.91
2023-03-24T03:42:58.212Z,-24109.66
2023-03-24T03:45:31.169Z,-24109.54
2023-03-24T03:47:59.980Z,-24109.63
2023-03-24T03:50:28.511Z,-24109.63
2023-03-24T03:52:57.779Z,-24109.51
2023-03-24T03:55:26.135Z,-24109.60
2023-03-24T03:57:54.842Z,-24109.48
2023-03-24T04:00:31.767Z,-24109.44
2023-03-24T04:03:38.063Z,-24109.38
2023-03-24T04:06:13.986Z,-24109.22
2023-03-24T04:08:53.426Z,-24109.07
2023-03-24T04:11:45.322Z,-24109.10
2023-03-24T04:14:31.869Z,-24109.16
2023-03-24T04:17:57.802Z,-24108.91
2023-03-24T04:21:02.452Z,-24108.26
2023-03-24T04:23:50.149Z,-24107.92
2023-03-24T04:26:34.573Z,-24107.95
2023-03-24T04:29:09.212Z,-24107.92
2023-03-24T04:31:49.595Z,-24107.67
2023-03-24T04:34:34.101Z,-24107.35
2023-03-24T04:37:26.952Z,-24107.42
2023-03-24T04:40:06.130Z,-24107.45
2023-03-24T04:42:41.273Z,-24107.36
2023-03-24T04:45:09.886Z,-24107.48
2023-03-24T04:48:10.088Z,-24107.57
2023-03-24T04:50:57.193Z,-24108.20
2023-03-24T04:53:29.320Z,-24108.45
2023-03-24T04:56:16.590Z,-24108.66
2023-03-24T04:58:59.859Z,-24108.66
2023-03-24T05:01:31.391Z,-24109.13
2023-03-24T05:04:23.912Z,-24109.66
2023-03-24T05:06:52.649Z,-24109.88
2023-03-24T05:09:24.982Z,-24110.13
2023-03-24T05:12:01.422Z,-24110.31
2023-03-24T05:14:35.223Z,-24110.59
2023-03-24T05:17:06.227Z,-24110.84
2023-03-24T05:19:42.126Z,-24110.90
2023-03-24T05:22:10.441Z,-24111.16
2023-03-24T05:24:40.371Z,-24111.22
2023-03-24T05:27:12.053Z,-24111.16
2023-03-24T05:29:40.621Z,-24111.22
2023-03-24T05:32:16.186Z,-24111.22
2023-03-24T05:34:45.687Z,-24111.59
2023-03-24T05:37:17.801Z,-24112.25
2023-03-24T05:39:49.425Z,-24113.43
2023-03-24T05:42:49.364Z,-24115.07
2023-03-24T05:45:17.908Z,-24117.13
2023-03-24T05:47:46.873Z,-24119.06
2023-03-24T05:50:15.199Z,-24120.36
2023-03-24T05:52:46.583Z,-24121.24
2023-03-24T05:55:33.171Z,-24121.86
2023-03-24T05:58:08.261Z,-24123.23
2023-03-24T06:00:41.984Z,-24124.75
2023-03-24T06:03:17.554Z,-24126.81
2023-03-24T06:05:52.881Z,-24129.20
2023-03-24T06:08:21.498Z,-24131.63
2023-03-24T06:10:53.592Z,-24133.89
2023-03-24T06:13:22.418Z,-24136.42
2023-03-24T06:15:54.766Z,-24138.81
2023-03-24T06:18:40.552Z,-24141.89
2023-03-24T06:21:18.656Z,-24144.10
2023-03-24T06:23:53.542Z,-24145.63
2023-03-24T06:26:30.929Z,-24147.21
2023-03-24T06:29:00.409Z,-24148.30
2023-03-24T06:31:32.907Z,-24148.92
2023-03-24T06:34:02.635Z,-24149.63
2023-03-24T06:36:31.334Z,-24150.22
2023-03-24T06:39:01.014Z,-24150.84
2023-03-24T06:41:29.819Z,-24151.13
2023-03-24T06:44:01.304Z,-24151.09
2023-03-24T06:46:30.120Z,-24150.88
2023-03-24T06:48:58.566Z,-24150.91
2023-03-24T06:51:27.049Z,-24150.88
2023-03-24T06:53:55.352Z,-24150.88
2023-03-24T06:56:28.495Z,-24150.57
2023-03-24T06:58:58.555Z,-24150.32
2023-03-24T07:01:30.322Z,-24150.47
2023-03-24T07:04:05.371Z,-24150.75
2023-03-24T07:06:40.201Z,-24151.53
2023-03-24T07:09:20.662Z,-24152.09
2023-03-24T07:11:48.862Z,-24152.74
2023-03-24T07:14:17.016Z,-24153.33
2023-03-24T07:16:45.807Z,-24153.92
2023-03-24T07:19:32.712Z,-24154.29
2023-03-24T07:22:38.412Z,-24154.92
2023-03-24T07:25:25.751Z,-24155.69
2023-03-24T07:28:11.890Z,-24156.03
2023-03-24T07:30:41.236Z,-24156.22
2023-03-24T07:33:12.979Z,-24156.94
2023-03-24T07:35:42.991Z,-24157.68
2023-03-24T07:38:15.799Z,-24158.15
2023-03-24T07:40:44.422Z,-24158.58
2023-03-24T07:43:13.215Z,-24159.27
2023-03-24T07:45:46.324Z,-24160.41
2023-03-24T07:48:16.673Z,-24161.88
2023-03-24T07:50:45.531Z,-24162.84
2023-03-24T07:53:45.792Z,-24163.77
2023-03-24T07:56:15.070Z,-24164.48
2023-03-24T07:58:49.670Z,-24165.38
2023-03-24T08:01:24.183Z,-24165.82
2023-03-24T08:06:46.346Z,-24166.69
2023-03-24T08:09:15.043Z,-24167.19
2023-03-24T08:11:43.481Z,-24167.90
2023-03-24T08:14:12.372Z,-24168.83
2023-03-24T08:16:40.620Z,-24169.86
2023-03-24T08:19:13.234Z,-24170.47
2023-03-24T08:21:43.219Z,-24171.32
2023-03-24T08:24:11.401Z,-24172.43
2023-03-24T08:26:42.922Z,-24173.24
2023-03-24T08:29:11.394Z,-24174.14
2023-03-24T08:31:39.504Z,-24175.07
2023-03-24T08:34:15.417Z,-24176.00
2023-03-24T08:36:43.720Z,-24176.69
2023-03-24T08:39:12.812Z,-24177.68
2023-03-24T08:41:41.138Z,-24179.17
2023-03-24T08:44:10.425Z,-24180.51
2023-03-24T08:46:40.224Z,-24182.22
2023-03-24T08:49:08.616Z,-24184.08
2023-03-24T08:51:38.470Z,-24185.88
2023-03-24T08:54:06.632Z,-24187.55
2023-03-24T08:56:34.978Z,-24190.01
2023-03-24T08:59:04.710Z,-24192.27
2023-03-24T09:01:37.068Z,-24194.29
2023-03-24T09:04:06.046Z,-24196.24
2023-03-24T09:06:34.718Z,-24197.89
2023-03-24T09:09:02.910Z,-24199.10
2023-03-24T09:11:38.573Z,-24200.83
2023-03-24T09:14:07.346Z,-24202.29
2023-03-24T09:16:35.566Z,-24203.69
2023-03-24T09:19:05.911Z,-24205.11
2023-03-24T09:21:36.221Z,-24206.97
2023-03-24T09:24:04.700Z,-24209.02
2023-03-24T09:26:34.179Z,-24210.26
2023-03-24T09:29:02.938Z,-24211.93
2023-03-24T09:31:33.497Z,-24212.71
2023-03-24T09:34:04.223Z,-24213.36
2023-03-24T09:36:32.723Z,-24214.26
2023-03-24T09:39:01.004Z,-24215.04
2023-03-24T09:41:33.128Z,-24216.89
2023-03-24T09:44:21.811Z,-24219.60
2023-03-24T09:47:01.547Z,-24222.10
2023-03-24T09:49:31.525Z,-24223.99
2023-03-24T09:52:05.014Z,-24225.21
2023-03-24T09:54:44.969Z,-24227.06
2023-03-24T09:57:21.542Z,-24229.26
2023-03-24T09:59:51.742Z,-24231.21
2023-03-24T10:02:20.789Z,-24233.19
2023-03-24T10:04:49.427Z,-24234.87
2023-03-24T10:07:35.184Z,-24236.29
2023-03-24T10:10:03.737Z,-24238.98
2023-03-24T10:12:39.027Z,-24241.49
2023-03-24T10:18:02.194Z,-24245.55
2023-03-24T10:20:42.823Z,-24247.78
2023-03-24T10:23:35.627Z,-24250.07
2023-03-24T10:26:06.067Z,-24252.71
2023-03-24T10:28:44.262Z,-24254.90
2023-03-24T10:31:14.305Z,-24257.38
2023-03-24T10:33:44.751Z,-24260.53
2023-03-24T10:36:18.501Z,-24263.66
2023-03-24T10:38:51.090Z,-24266.04
2023-03-24T10:41:21.903Z,-24267.74
2023-03-24T10:43:54.318Z,-24269.01
2023-03-24T10:46:28.364Z,-24270.09
2023-03-24T10:49:12.076Z,-24271.61
2023-03-24T10:51:49.797Z,-24273.34
2023-03-24T10:54:20.616Z,-24275.16
2023-03-24T10:57:00.738Z,-24277.20
2023-03-24T10:59:47.234Z,-24279.43
2023-03-24T11:02:17.788Z,-24280.63
2023-03-24T11:04:57.127Z,-24282.15
2023-03-24T11:07:33.028Z,-24284.35
2023-03-24T11:10:07.802Z,-24286.07
2023-03-24T11:12:39.031Z,-24287.16
2023-03-24T11:15:29.402Z,-24288.58
2023-03-24T11:18:08.743Z,-24290.68
2023-03-24T11:20:41.723Z,-24292.81
2023-03-24T11:23:13.215Z,-24294.85
2023-03-24T11:25:42.173Z,-24296.83
2023-03-24T11:28:15.911Z,-24299.21
2023-03-24T11:30:47.269Z,-24301.40
2023-03-24T11:33:34.488Z,-24303.38
2023-03-24T11:36:31.178Z,-24305.26
2023-03-24T11:39:22.936Z,-24307.45
2023-03-24T11:42:26.921Z,-24309.49
2023-03-24T11:44:56.554Z,-24312.82
2023-03-24T11:47:30.758Z,-24315.05
2023-03-24T11:50:11.154Z,-24316.68
2023-03-24T11:53:04.194Z,-24317.55
2023-03-24T11:55:33.191Z,-24316.68
2023-03-24T11:58:17.786Z,-24315.11
2023-03-24T12:01:05.297Z,-24314.99
2023-03-24T12:04:11.604Z,-24316.19
2023-03-24T12:06:46.964Z,-24317.64
2023-03-24T12:09:17.802Z,-24319.40
2023-03-24T12:11:51.212Z,-24321.84
2023-03-24T12:14:34.979Z,-24324.15
2023-03-24T12:17:16.996Z,-24326.28
2023-03-24T12:19:48.455Z,-24328.62
2023-03-24T12:22:39.268Z,-24330.94
2023-03-24T12:25:38.627Z,-24333.56
2023-03-24T12:28:10.606Z,-24334.39
2023-03-24T12:30:49.034Z,-24334.79
2023-03-24T12:33:29.659Z,-24336.24
2023-03-24T12:36:31.986Z,-24337.60
2023-03-24T12:39:35.839Z,-24339.14
2023-03-24T12:42:09.054Z,-24340.69
2023-03-24T12:44:46.518Z,-24340.87
2023-03-24T12:47:20.913Z,-24339.95
2023-03-24T12:50:27.897Z,-24339.11
2023-03-24T12:53:16.379Z,-24338.80
2023-03-24T12:56:20.240Z,-24338.25
2023-03-24T12:58:59.952Z,-24337.82
2023-03-24T13:01:45.300Z,-24338.25
2023-03-24T13:04:26.033Z,-24338.86
2023-03-24T13:07:06.963Z,-24339.27
2023-03-24T13:09:55.897Z,-24340.75
2023-03-24T13:12:25.041Z,-24342.07
2023-03-24T13:15:12.239Z,-24343.03
2023-03-24T13:17:49.550Z,-24343.37
2023-03-24T13:20:27.935Z,-24343.15
2023-03-24T13:22:56.536Z,-24342.93
2023-03-24T13:26:15.028Z,-24342.51
2023-03-24T13:28:50.150Z,-24341.98
2023-03-24T13:31:18.364Z,-24341.98
2023-03-24T13:33:47.352Z,-24342.16
2023-03-24T13:36:27.497Z,-24342.78
2023-03-24T13:38:57.358Z,-24343.31
2023-03-24T13:41:28.852Z,-24343.73
2023-03-24T13:44:19.823Z,-24344.17
2023-03-24T13:47:20.653Z,-24344.57
2023-03-24T13:50:07.728Z,-24345.56
2023-03-24T13:52:44.987Z,-24345.80
2023-03-24T13:55:18.905Z,-24345.96
2023-03-24T13:58:16.338Z,-24345.77
2023-03-24T14:01:11.295Z,-24345.21
2023-03-24T14:03:43.855Z,-24344.01
2023-03-24T14:06:16.577Z,-24342.97
2023-03-24T14:09:05.943Z,-24342.32
2023-03-24T14:11:34.434Z,-24341.86
2023-03-24T14:14:14.355Z,-24341.15
2023-03-24T14:17:02.000Z,-24340.19
2023-03-24T14:20:10.043Z,-24338.44
2023-03-24T14:22:42.228Z,-24336.61
2023-03-24T14:25:16.415Z,-24336.00
2023-03-24T14:27:46.104Z,-24336.00
2023-03-24T14:30:30.737Z,-24335.68
2023-03-24T14:33:01.786Z,-24334.95
2023-03-24T14:35:32.348Z,-24334.05
2023-03-24T14:38:05.480Z,-24333.22
2023-03-24T14:40:39.105Z,-24332.60
2023-03-24T14:43:22.525Z,-24331.77
2023-03-24T14:46:21.292Z,-24331.09
2023-03-24T14:48:58.151Z,-24329.64
2023-03-24T14:51:39.271Z,-24328.13
2023-03-24T14:54:16.832Z,-24327.17
2023-03-24T14:56:47.894Z,-24326.18
2023-03-24T14:59:46.825Z,-24325.69
2023-03-24T15:02:37.901Z,-24324.80
2023-03-24T15:05:25.582Z,-24323.60
2023-03-24T15:08:18.448Z,-24322.58
2023-03-24T15:10:53.129Z,-24321.59
2023-03-24T15:13:30.575Z,-24320.60
2023-03-24T15:16:27.078Z,-24319.49
2023-03-24T15:19:01.361Z,-24318.66
2023-03-24T15:21:41.129Z,-24318.16
2023-03-24T15:24:21.419Z,-24317.39
2023-03-24T15:26:51.625Z,-24316.46
2023-03-24T15:29:20.767Z,-24315.57
2023-03-24T15:31:50.181Z,-24314.62
2023-03-24T15:34:29.848Z,-24313.66
2023-03-24T15:37:03.864Z,-24312.43
2023-03-24T15:39:39.818Z,-24311.22
2023-03-24T15:42:14.154Z,-24309.98
2023-03-24T15:44:42.494Z,-24308.93
2023-03-24T15:47:25.250Z,-24308.44
2023-03-24T15:49:57.904Z,-24307.73
2023-03-24T15:52:36.284Z,-24307.02
2023-03-24T15:55:28.524Z,-24306.28
2023-03-24T15:57:57.293Z,-24305.66
2023-03-24T16:00:31.136Z,-24304.83
2023-03-24T16:03:01.020Z,-24303.71
2023-03-24T16:05:31.171Z,-24302.79
2023-03-24T16:08:05.850Z,-24301.95
2023-03-24T16:10:43.324Z,-24301.12
2023-03-24T16:13:21.697Z,-24300.22
2023-03-24T16:15:57.617Z,-24299.30
2023-03-24T16:18:37.359Z,-24298.40
2023-03-24T16:21:20.867Z,-24297.51
2023-03-24T16:23:53.441Z,-24296.61
2023-03-24T16:26:22.458Z,-24295.93
2023-03-24T16:29:22.183Z,-24295.10
2023-03-24T16:31:51.952Z,-24294.76
2023-03-24T16:34:21.257Z,-24294.14
2023-03-24T16:36:51.233Z,-24293.71
2023-03-24T16:39:21.184Z,-24293.03
2023-03-24T16:41:54.350Z,-24292.78
2023-03-24T16:44:23.310Z,-24292.26
2023-03-24T16:46:54.056Z,-24291.52
2023-03-24T16:49:24.116Z,-24290.71
2023-03-24T16:51:53.358Z,-24289.94
2023-03-24T16:54:25.531Z,-24288.89
2023-03-24T16:56:54.460Z,-24288.55
2023-03-24T16:59:22.785Z,-24288.21
2023-03-24T17:01:52.254Z,-24288.03
2023-03-24T17:04:22.631Z,-24287.81
2023-03-24T17:06:57.791Z,-24287.10
2023-03-24T17:09:28.675Z,-24286.57
2023-03-24T17:11:57.569Z,-24286.36
2023-03-24T17:14:32.866Z,-24286.26
2023-03-24T17:17:04.319Z,-24285.67
2023-03-24T17:19:33.191Z,-24285.03
2023-03-24T17:22:05.978Z,-24284.31
2023-03-24T17:24:41.840Z,-24283.94
2023-03-24T17:27:18.843Z,-24283.73
2023-03-24T17:29:47.302Z,-24283.42
2023-03-24T17:32:15.839Z,-24283.20
2023-03-24T17:34:47.326Z,-24282.49
2023-03-24T17:37:18.282Z,-24281.96
2023-03-24T17:39:47.476Z,-24281.41
2023-03-24T17:42:16.559Z,-24281.22
2023-03-24T17:44:44.813Z,-24281.04
2023-03-24T17:47:21.010Z,-24280.76
2023-03-24T17:50:12.487Z,-24280.04
2023-03-24T17:52:47.473Z,-24279.39
2023-03-24T17:55:17.107Z,-24278.96
2023-03-24T17:57:45.718Z,-24278.53
2023-03-24T18:00:14.721Z,-24278.04
2023-03-24T18:02:43.715Z,-24277.48
2023-03-24T18:05:16.065Z,-24276.49
2023-03-24T18:07:47.341Z,-24275.65
2023-03-24T18:10:16.077Z,-24274.79
2023-03-24T18:12:47.273Z,-24274.29
2023-03-24T18:15:15.924Z,-24273.68
2023-03-24T18:17:44.224Z,-24273.09
2023-03-24T18:20:21.120Z,-24272.50
2023-03-24T18:22:49.389Z,-24272.16
2023-03-24T18:25:17.745Z,-24271.79
2023-03-24T18:27:46.134Z,-24271.42
2023-03-24T18:30:14.631Z,-24270.96
2023-03-24T18:32:43.315Z,-24270.34
2023-03-24T18:35:16.443Z,-24268.67
2023-03-24T18:37:45.050Z,-24266.66
2023-03-24T18:40:15.902Z,-24264.68
2023-03-24T18:42:45.216Z,-24263.44
2023-03-24T18:45:19.634Z,-24262.70
2023-03-24T18:47:50.596Z,-24262.14
2023-03-24T18:50:19.727Z,-24261.28
2023-03-24T18:52:50.142Z,-24260.38
2023-03-24T18:55:18.694Z,-24259.48
2023-03-24T18:57:46.872Z,-24258.68
2023-03-24T19:00:15.584Z,-24258.09
2023-03-24T19:02:44.025Z,-24257.34
2023-03-24T19:05:14.256Z,-24256.72
2023-03-24T19:07:44.771Z,-24256.11
2023-03-24T19:10:13.068Z,-24255.58
2023-03-24T19:12:42.054Z,-24254.71
2023-03-24T19:15:13.717Z,-24254.31
2023-03-24T19:17:42.190Z,-24253.51
2023-03-24T19:20:11.234Z,-24252.58
2023-03-24T19:22:41.832Z,-24251.50
2023-03-24T19:25:10.459Z,-24250.13
2023-03-24T19:27:46.915Z,-24248.61
2023-03-24T19:30:16.209Z,-24247.22
2023-03-24T19:32:46.792Z,-24245.89
2023-03-24T19:35:15.452Z,-24245.15
2023-03-24T19:37:43.913Z,-24244.53
2023-03-24T19:40:16.765Z,-24244.56
2023-03-24T19:42:47.242Z,-24244.96
2023-03-24T19:45:16.858Z,-24245.21
2023-03-24T19:47:47.984Z,-24245.49
2023-03-24T19:50:16.898Z,-24245.48
2023-03-24T19:52:52.146Z,-24245.61
2023-03-24T19:55:21.574Z,-24245.58
2023-03-24T19:57:49.704Z,-24245.36
2023-03-24T20:00:18.546Z,-24245.08
2023-03-24T20:02:47.034Z,-24244.90
2023-03-24T20:05:15.252Z,-24244.53
2023-03-24T20:07:43.866Z,-24244.13
2023-03-24T20:10:12.125Z,-24244.16
2023-03-24T20:12:46.128Z,-24243.84
2023-03-24T20:15:15.704Z,-24243.41
2023-03-24T20:17:44.225Z,-24243.13
2023-03-24T20:20:15.729Z,-24242.39
2023-03-24T20:22:49.068Z,-24241.74
2023-03-24T20:25:17.920Z,-24240.94
2023-03-24T20:27:48.113Z,-24239.67
2023-03-24T20:30:17.750Z,-24238.89
2023-03-24T20:32:47.872Z,-24238.15
2023-03-24T20:35:18.383Z,-24237.62
2023-03-24T20:37:47.017Z,-24237.19
2023-03-24T20:40:15.416Z,-24236.91
2023-03-24T20:42:44.074Z,-24236.66
2023-03-24T20:45:12.419Z,-24236.26
2023-03-24T20:47:44.532Z,-24236.08
2023-03-24T20:50:13.549Z,-24235.86
2023-03-24T20:52:47.582Z,-24235.80
2023-03-24T20:55:36.024Z,-24235.42
2023-03-24T20:58:08.484Z,-24235.27
2023-03-24T21:00:42.144Z,-24234.99
2023-03-24T21:03:12.399Z,-24234.31
2023-03-24T21:05:40.585Z,-24233.60
2023-03-24T21:08:08.886Z,-24233.04
2023-03-24T21:10:45.651Z,-24232.54
2023-03-24T21:13:17.058Z,-24232.05
2023-03-24T21:15:45.737Z,-24231.64
2023-03-24T21:18:13.959Z,-24231.28
2023-03-24T21:21:12.724Z,-24230.71
2023-03-24T21:23:42.385Z,-24229.88
2023-03-24T21:26:15.356Z,-24229.14
2023-03-24T21:28:44.630Z,-24228.33
2023-03-24T21:31:21.762Z,-24227.90
2023-03-24T21:33:51.085Z,-24227.18
2023-03-24T21:36:19.416Z,-24226.32
2023-03-24T21:38:49.960Z,-24225.79
2023-03-24T21:41:18.652Z,-24225.08
2023-03-24T21:43:46.963Z,-24224.18
2023-03-24T21:46:21.723Z,-24223.09
2023-03-24T21:48:51.932Z,-24222.07
2023-03-24T21:51:34.303Z,-24221.30
2023-03-24T21:54:06.798Z,-24220.25
2023-03-24T21:56:38.140Z,-24219.10
2023-03-24T21:59:06.535Z,-24218.64
2023-03-24T22:01:36.407Z,-24218.14
2023-03-24T22:04:06.053Z,-24217.61
2023-03-24T22:06:38.763Z,-24217.39
2023-03-24T22:09:07.180Z,-24217.33
2023-03-24T22:11:35.685Z,-24217.24
2023-03-24T22:14:10.662Z,-24216.80
2023-03-24T22:16:41.186Z,-24216.59
2023-03-24T22:19:09.449Z,-24216.06
2023-03-24T22:21:39.798Z,-24215.53
2023-03-24T22:24:08.526Z,-24215.13
2023-03-24T22:26:36.655Z,-24214.41
2023-03-24T22:29:05.433Z,-24213.82
2023-03-24T22:31:34.306Z,-24213.42
2023-03-24T22:34:02.472Z,-24213.17
2023-03-24T22:36:31.873Z,-24213.39
2023-03-24T22:39:00.042Z,-24213.30
2023-03-24T22:41:28.324Z,-24213.23
2023-03-24T22:43:56.714Z,-24213.18
2023-03-24T22:46:25.730Z,-24212.95
2023-03-24T22:48:53.903Z,-24212.74
2023-03-24T22:51:22.237Z,-24212.24
2023-03-24T22:53:52.754Z,-24211.87
2023-03-24T22:56:21.159Z,-24211.31
2023-03-24T22:58:50.403Z,-24210.69
2023-03-24T23:01:18.517Z,-24210.26
2023-03-24T23:03:46.759Z,-24209.55
2023-03-24T23:06:21.629Z,-24209.33
2023-03-24T23:08:53.646Z,-24209.05
2023-03-24T23:11:21.914Z,-24208.65
2023-03-24T23:14:06.441Z,-24208.12
2023-03-24T23:16:37.818Z,-24207.68
2023-03-24T23:19:09.749Z,-24207.59
2023-03-24T23:21:39.533Z,-24207.38
2023-03-24T23:24:07.822Z,-24207.41
2023-03-24T23:26:39.299Z,-24207.29
2023-03-24T23:29:07.816Z,-24207.41
2023-03-24T23:31:37.059Z,-24207.35
2023-03-24T23:34:07.580Z,-24207.16
2023-03-24T23:36:36.113Z,-24206.88
2023-03-24T23:39:06.077Z,-24206.79
2023-03-24T23:41:36.055Z,-24206.42
2023-03-24T23:44:04.484Z,-24206.48
2023-03-24T23:46:34.859Z,-24206.29
2023-03-24T23:49:03.488Z,-24206.14
2023-03-24T23:51:31.590Z,-24206.23
2023-03-24T23:53:59.788Z,-24206.29
2023-03-24T23:56:30.822Z,-24206.01
2023-03-24T23:58:59.157Z,-24205.61
